Time;durP1;ratioP1;P1;durP2;ratioP2;P2;SDS_P1;SDS_P2;PMS_P1;PMS_P2;Temp;Humidity;BMP_temperature;BMP_pressure;BME280_temperature;BME280_humidity;BME280_pressure;Samples;Min_cycle;Max_cycle;Signal;HPM_P1;HPM_P2
2021/12/03 00:00:17;;;;;;;0.60;0.47;;;-0.80;1.40;;;-0.03;100.00;94530.19;647100;216;31526;-75
2021/12/03 00:02:59;;;;;;;0.85;0.85;;;-0.80;1.40;;;-0.10;100.00;94529.41;647054;212;31605;-75
2021/12/03 00:05:41;;;;;;;0.40;0.40;;;-0.80;1.40;;;-0.15;100.00;94533.60;637171;216;31845;-75
2021/12/03 00:08:24;;;;;;;0.93;0.80;;;-0.90;1.40;;;-0.22;100.00;94536.74;646317;216;31576;-74
2021/12/03 00:11:05;;;;;;;2.10;1.50;;;-1.00;1.40;;;-0.23;100.00;94540.15;648268;212;31545;-75
2021/12/03 00:13:46;;;;;;;1.37;1.27;;;-1.00;1.40;;;-0.22;100.00;94539.56;647053;212;31565;-75
2021/12/03 00:16:31;;;;;;;0.80;0.70;;;-1.00;1.40;;;-0.26;100.00;94546.37;646979;212;31709;-75
2021/12/03 00:19:13;;;;;;;0.80;0.60;;;-1.00;1.40;;;-0.23;100.00;94558.36;647717;216;31503;-76
2021/12/03 00:21:55;;;;;;;2.00;1.90;;;-0.90;1.40;;;-0.16;100.00;94563.75;646498;212;31560;-75
2021/12/03 00:24:38;;;;;;;1.35;1.25;;;-0.80;1.40;;;-0.04;100.00;94572.33;647109;216;31542;-75
2021/12/03 00:27:18;;;;;;;0.80;0.70;;;-0.70;1.40;;;-0.05;100.00;94569.98;646084;216;42180;-75
2021/12/03 00:30:03;;;;;;;0.40;0.40;;;-0.50;1.40;;;0.07;100.00;94575.54;646779;212;31573;-75
2021/12/03 00:32:45;;;;;;;1.50;1.30;;;-0.50;1.40;;;0.07;100.00;94585.34;619171;224;31928;-75
2021/12/03 00:35:52;;;;;;;1.55;1.08;;;-0.40;1.40;;;0.11;100.00;94590.95;646220;216;31568;-75
2021/12/03 00:38:37;;;;;;;2.10;1.40;;;-0.40;1.40;;;0.12;100.00;94603.97;647788;212;31532;-76
2021/12/03 00:41:20;;;;;;;1.40;1.30;;;-0.40;1.40;;;0.15;100.00;94608.08;646939;212;31772;-75
2021/12/03 00:44:01;;;;;;;1.40;0.80;;;-0.40;1.40;;;0.17;100.00;94616.14;647199;216;31544;-75
2021/12/03 00:46:44;;;;;;;1.12;0.55;;;-0.30;1.40;;;0.27;100.00;94631.19;647675;216;31522;-75
2021/12/03 00:49:26;;;;;;;1.30;1.20;;;-0.30;1.40;;;0.39;100.00;94634.08;648236;212;31681;-75
2021/12/03 00:52:10;;;;;;;1.80;0.80;;;-0.30;1.40;;;0.46;100.00;94639.38;646309;212;31531;-75
2021/12/03 00:54:52;;;;;;;0.90;0.80;;;-0.20;1.40;;;0.41;100.00;94647.26;647023;216;31560;-75
2021/12/03 00:57:34;;;;;;;0.90;0.70;;;-0.20;1.40;;;0.44;100.00;94658.57;647958;216;31544;-74
2021/12/03 01:00:16;;;;;;;1.10;1.10;;;-0.20;1.40;;;0.38;100.00;94662.55;647885;216;31713;-75
2021/12/03 01:02:57;;;;;;;2.62;0.73;;;-0.20;1.40;;;0.36;100.00;94667.63;647374;212;42005;-75
2021/12/03 01:05:39;;;;;;;2.80;1.10;;;-0.20;1.40;;;0.31;100.00;94678.00;612319;222;42732;-75
2021/12/03 01:08:22;;;;;;;3.67;1.60;;;-0.20;1.40;;;0.30;100.00;94672.40;646052;212;31596;-75
2021/12/03 01:11:04;;;;;;;1.15;1.05;;;-0.20;1.40;;;0.29;100.00;94674.74;646793;216;32135;-75
2021/12/03 01:13:50;;;;;;;3.03;1.30;;;-0.20;1.40;;;0.34;100.00;94681.00;647239;216;32025;-75
2021/12/03 01:16:31;;;;;;;1.95;1.67;;;-0.30;1.40;;;0.31;100.00;94693.30;648006;216;42293;-74
2021/12/03 01:19:14;;;;;;;1.37;1.25;;;-0.30;1.40;;;0.24;100.00;94702.01;645571;216;42236;-75
2021/12/03 01:21:59;;;;;;;0.90;0.80;;;-0.30;1.40;;;0.24;100.00;94712.72;647187;216;32213;-75
2021/12/03 01:24:42;;;;;;;1.90;1.67;;;-0.40;1.40;;;0.20;100.00;94715.58;619713;226;31886;-75
2021/12/03 01:27:23;;;;;;;1.55;1.45;;;-0.40;1.40;;;0.18;100.00;94717.77;646684;212;31766;-75
2021/12/03 01:30:06;;;;;;;1.20;1.10;;;-0.40;1.40;;;0.11;100.00;94721.09;619831;226;42893;-76
2021/12/03 01:32:48;;;;;;;2.20;1.90;;;-0.40;1.40;;;0.14;100.00;94727.77;648070;212;31557;-75
2021/12/03 01:35:55;;;;;;;1.37;0.73;;;-0.40;1.40;;;0.10;100.00;94742.87;646858;212;31551;-75
2021/12/03 01:38:36;;;;;;;1.52;0.62;;;-0.50;1.40;;;0.16;100.00;94738.44;645789;216;42234;-76
2021/12/03 01:41:18;;;;;;;2.20;1.70;;;-0.50;1.40;;;0.14;100.00;94743.44;647239;216;42202;-74
2021/12/03 01:44:02;;;;;;;0.75;0.60;;;-0.50;1.40;;;0.03;100.00;94743.15;647217;212;31494;-76
2021/12/03 01:46:41;;;;;;;2.00;1.10;;;-0.60;1.40;;;-0.03;100.00;94737.17;646961;216;42165;-75
2021/12/03 01:49:24;;;;;;;1.23;0.90;;;-0.80;1.40;;;-0.13;100.00;94732.03;647158;212;31851;-75
2021/12/03 01:52:06;;;;;;;1.90;1.47;;;-0.90;1.40;;;-0.23;100.00;94733.80;646205;212;31537;-75
2021/12/03 01:54:48;;;;;;;3.50;1.70;;;-0.90;1.40;;;-0.20;100.00;94742.40;645533;216;31578;-74
2021/12/03 01:57:30;;;;;;;1.40;1.25;;;-0.90;1.40;;;-0.22;100.00;94744.19;646353;216;42132;-74
2021/12/03 02:00:14;;;;;;;1.12;0.93;;;-0.90;1.40;;;-0.21;100.00;94741.70;619446;226;31850;-75
2021/12/03 02:02:55;;;;;;;1.42;1.33;;;-0.90;1.40;;;-0.24;100.00;94742.05;647375;216;31888;-75
2021/12/03 02:05:37;;;;;;;1.40;0.60;;;-0.90;1.40;;;-0.17;100.00;94745.05;638177;216;32284;-75
2021/12/03 02:08:19;;;;;;;1.00;0.98;;;-0.90;1.40;;;-0.13;100.00;94739.66;646803;216;42260;-75
2021/12/03 02:11:01;;;;;;;1.20;1.10;;;-0.90;1.40;;;-0.29;100.00;94737.69;631359;222;32201;-75
2021/12/03 02:13:42;;;;;;;0.70;0.70;;;-0.90;1.40;;;-0.23;100.00;94737.80;646059;212;31557;-75
2021/12/03 02:16:24;;;;;;;0.80;0.80;;;-0.90;1.40;;;-0.22;100.00;94729.66;647162;216;31671;-75
2021/12/03 02:19:07;;;;;;;2.20;1.10;;;-0.90;1.40;;;-0.16;100.00;94723.28;631975;222;31726;-75
2021/12/03 02:21:48;;;;;;;2.10;1.50;;;-0.80;1.40;;;-0.09;100.00;94737.39;646836;213;31648;-75
2021/12/03 02:24:30;;;;;;;3.60;1.70;;;-0.70;1.40;;;0.02;100.00;94741.49;646443;212;31554;-74
2021/12/03 02:27:12;;;;;;;1.35;1.30;;;-0.60;1.40;;;0.07;100.00;94743.60;647886;216;42151;-75
2021/12/03 02:29:54;;;;;;;1.10;1.10;;;-0.50;1.40;;;0.09;100.00;94752.62;647073;212;31586;-75
2021/12/03 02:32:35;;;;;;;1.80;1.00;;;-0.40;1.40;;;0.07;100.00;94753.78;647618;212;31671;-76
2021/12/03 02:35:50;;;;;;;0.90;0.70;;;-0.40;1.40;;;0.06;100.00;94749.94;646722;216;31583;-75
2021/12/03 02:38:32;;;;;;;1.08;1.02;;;-0.40;1.40;;;0.05;100.00;94751.95;646566;212;31625;-75
2021/12/03 02:41:14;;;;;;;3.70;1.60;;;-0.50;1.40;;;0.09;100.00;94758.27;619907;222;31927;-75
2021/12/03 02:43:59;;;;;;;1.08;0.90;;;-0.50;1.40;;;0.04;100.00;94764.52;646915;216;31854;-75
2021/12/03 02:46:40;;;;;;;1.35;1.08;;;-0.40;1.40;;;0.10;100.00;94765.69;646990;212;31504;-75
2021/12/03 02:49:22;;;;;;;1.10;1.10;;;-0.40;1.40;;;0.06;100.00;94767.73;647003;212;31868;-75
2021/12/03 02:52:04;;;;;;;2.53;1.50;;;-0.40;1.40;;;0.06;100.00;94770.08;647741;216;31842;-75
2021/12/03 02:54:46;;;;;;;1.30;1.02;;;-0.40;1.40;;;0.08;100.00;94778.57;646163;212;31582;-75
2021/12/03 02:57:28;;;;;;;2.60;1.00;;;-0.40;1.40;;;-0.01;100.00;94787.21;618698;222;31874;-75
2021/12/03 03:00:10;;;;;;;1.10;1.00;;;-0.40;1.40;;;0.01;100.00;94782.35;647604;216;31515;-75
2021/12/03 03:02:52;;;;;;;0.90;0.90;;;-0.40;1.40;;;-0.01;100.00;94779.48;636259;216;42380;-75
2021/12/03 03:05:34;;;;;;;1.15;0.60;;;-0.50;1.40;;;-0.04;100.00;94782.98;613741;226;32259;-74
2021/12/03 03:08:15;;;;;;;1.20;1.10;;;-0.50;1.40;;;-0.05;100.00;94793.47;648183;216;31576;-75
2021/12/03 03:10:57;;;;;;;0.80;0.80;;;-0.40;1.40;;;-0.04;100.00;94802.53;645584;216;31956;-74
2021/12/03 03:13:39;;;;;;;0.57;0.52;;;-0.50;1.40;;;-0.04;100.00;94800.98;647925;216;31525;-75
2021/12/03 03:16:21;;;;;;;1.20;0.90;;;-0.50;1.40;;;-0.01;100.00;94802.08;647578;212;31534;-75
2021/12/03 03:19:14;;;;;;;2.90;1.00;;;-0.50;1.40;;;0.03;100.00;94806.77;646311;212;31478;-75
2021/12/03 03:21:55;;;;;;;1.80;1.00;;;-0.40;1.40;;;0.05;100.00;94805.94;647143;212;32151;-75
2021/12/03 03:24:40;;;;;;;0.40;0.30;;;-0.40;1.40;;;0.02;100.00;94807.83;648249;216;31519;-75
2021/12/03 03:27:23;;;;;;;1.87;0.60;;;-0.40;1.40;;;0.02;100.00;94806.82;646087;212;31844;-75
2021/12/03 03:30:05;;;;;;;1.90;1.10;;;-0.40;1.40;;;0.07;100.00;94813.68;647712;216;42277;-75
2021/12/03 03:32:50;;;;;;;1.90;1.50;;;-0.30;1.40;;;0.06;100.00;94811.86;646682;213;42859;-75
2021/12/03 03:35:52;;;;;;;0.57;0.57;;;-0.40;1.40;;;0.07;100.00;94814.16;646714;214;31727;-75
2021/12/03 03:38:33;;;;;;;3.60;1.10;;;-0.40;1.40;;;0.07;100.00;94818.90;646701;216;31531;-75
2021/12/03 03:41:18;;;;;;;1.70;1.60;;;-0.40;1.40;;;0.07;100.00;94817.30;646616;216;31608;-74
2021/12/03 03:44:00;;;;;;;1.75;1.35;;;-0.40;1.40;;;0.10;100.00;94824.84;647198;216;32126;-75
2021/12/03 03:46:44;;;;;;;1.60;1.50;;;-0.40;1.40;;;0.15;100.00;94821.90;647220;212;31595;-75
2021/12/03 03:49:29;;;;;;;0.90;0.90;;;-0.30;1.40;;;0.08;100.00;94831.06;646692;216;32165;-75
2021/12/03 03:52:10;;;;;;;1.05;1.05;;;-0.30;1.40;;;0.08;100.00;94832.33;618681;222;32498;-74
2021/12/03 03:54:55;;;;;;;2.00;0.73;;;-0.30;1.40;;;0.14;100.00;94835.27;647573;212;31521;-75
2021/12/03 03:57:37;;;;;;;0.60;0.40;;;-0.30;1.40;;;0.18;100.00;94840.04;645788;216;31481;-75
2021/12/03 04:00:19;;;;;;;1.45;0.82;;;-0.40;1.40;;;0.22;100.00;94837.54;618975;226;31868;-75
2021/12/03 04:03:00;;;;;;;1.45;1.05;;;-0.30;1.40;;;0.28;100.00;94835.02;646675;216;31547;-75
2021/12/03 04:05:43;;;;;;;0.50;0.50;;;-0.30;1.40;;;0.23;100.00;94839.52;637887;212;31754;-75
2021/12/03 04:08:28;;;;;;;1.20;1.00;;;-0.30;1.40;;;0.21;100.00;94845.09;618380;226;42499;-75
2021/12/03 04:11:06;;;;;;;2.87;0.98;;;-0.30;1.40;;;0.15;100.00;94842.95;618748;226;42472;-75
2021/12/03 04:13:48;;;;;;;1.55;1.10;;;-0.30;1.40;;;0.18;100.00;94842.70;646061;216;31575;-75
2021/12/03 04:16:30;;;;;;;0.85;0.85;;;-0.30;1.40;;;0.22;100.00;94849.95;647080;212;32235;-75
2021/12/03 04:19:11;;;;;;;2.10;0.60;;;-0.30;1.40;;;0.24;100.00;94860.37;618320;222;32126;-75
2021/12/03 04:21:53;;;;;;;2.53;0.88;;;-0.40;1.40;;;0.22;100.00;94853.63;646893;212;31530;-74
2021/12/03 04:27:10;;;;;;;0.70;0.50;;;-0.50;1.40;;;0.00;100.00;94863.66;647197;212;31508;-75
2021/12/03 04:29:52;;;;;;;1.50;0.80;;;-0.40;1.40;;;0.11;100.00;94857.36;647051;216;31558;-75
2021/12/03 04:32:33;;;;;;;0.60;0.50;;;-0.40;1.40;;;0.11;100.00;94859.70;646696;216;43296;-75
2021/12/03 04:35:51;;;;;;;2.28;1.00;;;-0.40;1.40;;;0.07;100.00;94861.37;647819;212;31584;-74
2021/12/03 04:38:32;;;;;;;0.90;0.90;;;-0.50;1.40;;;-0.07;100.00;94859.89;647145;216;31617;-74
2021/12/03 04:41:17;;;;;;;1.20;1.10;;;-0.50;1.40;;;-0.07;100.00;94862.07;646179;212;31538;-75
2021/12/03 04:44:05;;;;;;;1.10;0.70;;;-0.60;1.40;;;-0.09;100.00;94866.95;646315;216;31574;-74
2021/12/03 04:46:47;;;;;;;1.20;1.20;;;-0.60;1.40;;;-0.07;100.00;94869.00;619417;222;31857;-75
2021/12/03 04:49:28;;;;;;;1.92;1.35;;;-0.70;1.40;;;-0.17;100.00;94874.81;646374;212;31528;-75
2021/12/03 04:52:11;;;;;;;0.80;0.75;;;-0.70;1.40;;;-0.22;100.00;94877.02;647876;216;31949;-73
2021/12/03 04:54:56;;;;;;;1.90;1.00;;;-0.70;1.40;;;-0.29;100.00;94885.05;646932;212;31486;-75
2021/12/03 04:57:37;;;;;;;1.20;1.00;;;-0.80;1.40;;;-0.29;100.00;94886.81;646202;216;31555;-75
2021/12/03 05:00:23;;;;;;;1.20;0.80;;;-0.90;1.40;;;-0.36;100.00;94887.86;645295;214;31711;-75
2021/12/03 05:03:06;;;;;;;1.10;0.80;;;-0.80;1.40;;;-0.36;100.00;94889.30;646989;212;31743;-75
2021/12/03 05:08:24;;;;;;;2.10;2.00;;;-0.80;1.40;;;-0.33;100.00;94894.77;646480;212;31549;-74
2021/12/03 05:11:07;;;;;;;1.20;0.90;;;-0.80;1.40;;;-0.28;100.00;94898.65;647177;216;31608;-74
2021/12/03 05:13:49;;;;;;;0.70;0.70;;;-0.80;1.40;;;-0.23;100.00;94905.41;647684;212;31536;-75
2021/12/03 05:16:30;;;;;;;0.80;0.80;;;-0.80;1.40;;;-0.18;100.00;94907.63;646483;216;31534;-75
2021/12/03 05:19:12;;;;;;;2.10;1.10;;;-0.80;1.40;;;-0.16;100.00;94914.19;646062;216;31586;-75
2021/12/03 05:21:57;;;;;;;0.60;0.60;;;-0.80;1.40;;;-0.17;100.00;94921.96;647134;213;31591;-75
2021/12/03 05:24:38;;;;;;;1.10;0.50;;;-0.80;1.40;;;-0.21;100.00;94923.97;646527;216;31541;-75
2021/12/03 05:27:20;;;;;;;1.20;1.10;;;-0.80;1.40;;;-0.24;100.00;94926.27;647059;213;31526;-74
2021/12/03 05:30:02;;;;;;;2.28;1.10;;;-0.80;1.40;;;-0.21;100.00;94927.59;618965;226;31920;-75
2021/12/03 05:32:43;;;;;;;0.70;0.70;;;-0.80;1.40;;;-0.21;100.00;94933.34;631934;221;31679;-75
2021/12/03 05:35:51;;;;;;;0.75;0.75;;;-0.70;1.40;;;-0.32;100.00;94943.55;646634;212;31554;-75
2021/12/03 05:38:38;;;;;;;0.85;0.50;;;-0.70;1.40;;;-0.35;100.00;94945.38;630634;217;32125;-74
2021/12/03 05:41:18;;;;;;;1.30;0.55;;;-0.80;1.40;;;-0.34;100.00;94954.18;647442;212;31509;-75
2021/12/03 05:44:02;;;;;;;2.20;0.70;;;-0.80;1.40;;;-0.35;100.00;94959.39;646578;216;31580;-75
2021/12/03 05:46:45;;;;;;;1.23;1.12;;;-0.80;1.40;;;-0.33;100.00;94961.38;645182;212;31502;-75
2021/12/03 05:49:36;;;;;;;2.60;0.90;;;-0.80;1.40;;;-0.27;100.00;94969.66;646641;216;31731;-75
2021/12/03 05:52:18;;;;;;;1.20;1.10;;;-0.80;1.40;;;-0.26;100.00;94978.34;647857;212;32072;-75
2021/12/03 05:55:00;;;;;;;1.00;0.80;;;-0.80;1.40;;;-0.30;100.00;94981.81;647571;216;31617;-74
2021/12/03 06:00:21;;;;;;;0.93;0.82;;;-0.70;1.40;;;-0.21;100.00;94992.20;645844;216;31539;-74
2021/12/03 06:03:04;;;;;;;1.60;1.50;;;-0.70;1.40;;;-0.20;100.00;94997.06;646422;216;31739;-74
2021/12/03 06:05:46;;;;;;;0.80;0.40;;;-0.70;1.40;;;-0.15;100.00;95001.78;618066;222;42820;-74
2021/12/03 06:08:30;;;;;;;1.20;0.55;;;-0.70;1.40;;;-0.08;100.00;95006.66;620118;222;32023;-74
2021/12/03 06:11:12;;;;;;;0.57;0.45;;;-0.70;1.40;;;-0.10;100.00;95005.73;647099;216;31801;-75
2021/12/03 06:13:53;;;;;;;1.30;1.00;;;-0.70;1.40;;;-0.18;100.00;95014.64;646168;216;31533;-75
2021/12/03 06:16:35;;;;;;;1.90;1.00;;;-0.60;1.40;;;-0.20;100.00;95026.36;619437;226;31915;-75
2021/12/03 06:19:17;;;;;;;2.60;0.80;;;-0.60;1.40;;;-0.20;100.00;95020.02;645983;216;31483;-75
2021/12/03 06:21:59;;;;;;;1.95;1.12;;;-0.70;1.40;;;-0.16;100.00;95021.27;646458;212;31507;-75
2021/12/03 06:24:40;;;;;;;2.35;1.00;;;-0.70;1.40;;;-0.24;100.00;95022.42;647239;212;31909;-75
2021/12/03 06:27:24;;;;;;;0.70;0.70;;;-0.70;1.40;;;-0.21;100.00;95026.66;646706;212;31521;-75
2021/12/03 06:30:07;;;;;;;1.10;1.00;;;-0.70;1.40;;;-0.10;100.00;95032.84;646506;216;31558;-75
2021/12/03 06:32:47;;;;;;;2.00;0.80;;;-0.70;1.40;;;-0.20;100.00;95035.35;646310;216;31550;-75
2021/12/03 06:35:51;;;;;;;2.30;1.20;;;-0.80;1.40;;;-0.29;100.00;95029.59;647304;216;31506;-75
2021/12/03 06:38:33;;;;;;;1.20;1.10;;;-0.80;1.40;;;-0.24;100.00;95034.29;647524;212;32150;-74
2021/12/03 06:41:18;;;;;;;1.40;0.80;;;-0.70;1.40;;;-0.19;100.00;95027.86;646344;216;31606;-75
2021/12/03 06:43:59;;;;;;;1.20;0.50;;;-0.60;1.40;;;-0.22;100.00;95035.55;645685;216;31549;-74
2021/12/03 06:46:41;;;;;;;0.80;0.80;;;-0.70;1.40;;;-0.19;100.00;95048.80;647400;216;31518;-76
2021/12/03 06:49:23;;;;;;;2.30;1.33;;;-0.70;1.40;;;-0.26;100.00;95040.07;646080;212;31530;-74
2021/12/03 06:52:08;;;;;;;2.30;1.10;;;-0.70;1.40;;;-0.29;100.00;95046.70;619373;226;31878;-74
2021/12/03 06:54:54;;;;;;;1.62;1.10;;;-0.70;1.40;;;-0.29;100.00;95054.36;646580;216;31583;-75
2021/12/03 06:57:28;;;;;;;1.67;0.85;;;-0.80;1.40;;;-0.30;100.00;95056.80;646765;216;31519;-75
2021/12/03 07:00:10;;;;;;;3.50;1.10;;;-0.80;1.40;;;-0.43;100.00;95062.72;646358;216;31558;-75
2021/12/03 07:02:55;;;;;;;3.50;1.50;;;-0.90;1.40;;;-0.51;100.00;95069.80;647832;213;31525;-74
2021/12/03 07:05:37;;;;;;;2.50;1.02;;;-0.90;1.40;;;-0.46;100.00;95072.37;646665;216;31495;-75
2021/12/03 07:08:19;;;;;;;1.95;1.10;;;-0.90;1.40;;;-0.37;100.00;95069.44;647072;216;31627;-75
2021/12/03 07:11:01;;;;;;;1.70;1.50;;;-0.80;1.40;;;-0.29;100.00;95079.29;619249;226;32081;-75
2021/12/03 07:13:43;;;;;;;1.00;0.85;;;-0.80;1.40;;;-0.17;100.00;95079.16;619158;222;32340;-74
2021/12/03 07:16:24;;;;;;;1.25;0.95;;;-0.70;1.40;;;-0.18;100.00;95081.59;646521;212;31761;-75
2021/12/03 07:19:06;;;;;;;1.20;0.53;;;-0.60;1.40;;;-0.12;100.00;95085.77;642785;214;32262;-75
2021/12/03 07:21:48;;;;;;;1.50;1.40;;;-0.60;1.40;;;-0.10;100.00;95087.98;646547;212;32146;-74
2021/12/03 07:24:30;;;;;;;1.30;1.15;;;-0.60;1.40;;;-0.11;100.00;95092.77;647424;212;42592;-74
2021/12/03 07:27:11;;;;;;;0.60;0.60;;;-0.60;1.40;;;-0.05;100.00;95101.52;646798;212;32214;-75
2021/12/03 07:29:53;;;;;;;2.30;0.90;;;-0.60;1.40;;;0.07;100.00;95102.13;645414;212;31533;-75
2021/12/03 07:32:35;;;;;;;1.40;1.30;;;-0.50;1.40;;;0.03;100.00;95103.95;646884;216;31538;-74
2021/12/03 07:35:51;;;;;;;1.25;1.15;;;-0.50;1.40;;;0.08;100.00;95103.16;646464;216;31598;-75
2021/12/03 07:38:33;;;;;;;1.62;0.88;;;-0.40;1.40;;;0.21;100.00;95107.08;646869;216;31586;-75
2021/12/03 07:41:14;;;;;;;3.80;1.50;;;-0.30;1.40;;;0.30;100.00;95112.20;646368;216;31614;-76
2021/12/03 07:43:56;;;;;;;3.00;1.10;;;-0.30;1.40;;;0.40;100.00;95113.14;645400;212;43130;-75
2021/12/03 07:46:38;;;;;;;0.73;0.73;;;-0.30;1.40;;;0.60;100.00;95121.23;647391;212;32160;-75
2021/12/03 07:49:21;;;;;;;0.80;0.80;;;-0.20;1.40;;;0.69;100.00;95125.44;647526;216;32419;-77
2021/12/03 07:52:01;;;;;;;1.70;1.40;;;-0.10;1.40;;;0.79;100.00;95122.59;644849;212;31817;-78
2021/12/03 07:54:43;;;;;;;1.25;1.15;;;-0.10;1.40;;;1.00;100.00;95127.62;620368;222;32551;-78
2021/12/03 07:57:28;;;;;;;2.80;2.00;;;0.00;1.40;;;0.87;100.00;95131.30;645666;212;31578;-77
2021/12/03 08:00:16;;;;;;;1.40;1.20;;;0.00;1.40;;;0.70;100.00;95129.14;645424;212;32053;-77
2021/12/03 08:03:01;;;;;;;1.70;1.35;;;-0.10;1.40;;;0.79;100.00;95125.04;646479;212;42696;-77
2021/12/03 08:05:42;;;;;;;2.53;1.80;;;-0.10;1.40;;;0.61;100.00;95131.86;614076;225;32921;-77
2021/12/03 08:08:26;;;;;;;1.15;0.90;;;-0.20;1.40;;;0.66;100.00;95135.12;642486;214;31581;-78
2021/12/03 08:11:12;;;;;;;2.00;1.90;;;-0.30;1.40;;;0.58;100.00;95149.38;618545;222;31839;-75
2021/12/03 08:13:59;;;;;;;0.77;0.77;;;-0.20;1.40;;;0.45;100.00;95147.81;647020;212;31636;-76
2021/12/03 08:16:44;;;;;;;2.90;1.40;;;-0.10;1.40;;;0.50;100.00;95146.58;619423;222;31954;-78
2021/12/03 08:19:32;;;;;;;2.60;1.50;;;-0.10;1.40;;;0.48;100.00;95146.30;646523;216;31988;-77
2021/12/03 08:22:21;;;;;;;1.83;1.60;;;-0.20;1.40;;;0.61;100.00;95144.19;645130;212;42175;-77
2021/12/03 08:25:01;;;;;;;1.60;1.20;;;-0.20;1.40;;;0.64;100.00;95143.63;647736;212;31548;-77
2021/12/03 08:27:44;;;;;;;2.10;1.80;;;-0.10;1.40;;;0.75;100.00;95142.66;648177;216;42505;-77
2021/12/03 08:30:30;;;;;;;2.58;1.87;;;0.00;1.40;;;0.81;100.00;95147.36;645585;216;31556;-78
2021/12/03 08:35:56;;;;;;;2.95;1.20;;;0.00;1.40;;;0.74;100.00;95143.63;647388;212;31717;-75
2021/12/03 08:38:44;;;;;;;2.35;2.15;;;-0.10;1.40;;;0.65;100.00;95152.60;645178;216;31566;-77
2021/12/03 08:41:35;;;;;;;1.73;1.50;;;0.00;1.40;;;1.31;100.00;95158.98;643152;216;31582;-76
2021/12/03 08:44:18;;;;;;;2.30;1.37;;;2.30;1.40;;;2.57;100.00;95165.63;620924;225;31927;-77
2021/12/03 08:47:04;;;;;;;2.50;2.30;;;3.60;1.40;;;3.23;100.00;95171.72;647021;212;31602;-78
2021/12/03 08:49:54;;;;;;;2.60;2.40;;;4.10;1.40;;;3.49;100.00;95175.33;647464;212;32950;-78
2021/12/03 08:52:48;;;;;;;3.53;2.90;;;3.70;1.40;;;3.24;100.00;95182.71;645785;212;31540;-78
2021/12/03 08:55:18;;;;;;;2.28;1.75;;;3.90;1.40;;;3.50;100.00;95182.83;647478;216;31587;-77
2021/12/03 08:58:02;;;;;;;2.30;1.30;;;4.00;1.40;;;3.85;100.00;95184.55;647387;212;31584;-77
2021/12/03 09:00:44;;;;;;;2.30;2.10;;;4.30;1.40;;;5.30;100.00;95189.97;646817;212;31576;-77
2021/12/03 09:03:26;;;;;;;4.10;2.40;;;5.90;1.40;;;5.22;100.00;95193.45;621138;226;31875;-78
2021/12/03 09:06:07;;;;;;;2.83;2.20;;;5.90;1.40;;;5.78;100.00;95193.45;637126;212;31722;-78
2021/12/03 09:08:49;;;;;;;3.30;1.67;;;6.20;1.40;;;5.84;100.00;95193.98;620160;225;31964;-78
2021/12/03 09:11:32;;;;;;;3.17;1.63;;;5.10;1.40;;;4.64;100.00;95195.85;647703;216;31678;-79
2021/12/03 09:14:18;;;;;;;1.90;1.63;;;4.00;1.40;;;3.64;100.00;95193.10;647482;216;32518;-78
2021/12/03 09:19:53;;;;;;;2.70;1.70;;;5.10;1.40;;;5.55;100.00;95198.08;647348;212;31512;-78
2021/12/03 09:22:41;;;;;;;2.73;2.13;;;5.60;1.40;;;5.84;100.00;95198.99;645916;212;32194;-75
2021/12/03 09:25:24;;;;;;;1.93;1.80;;;5.10;1.40;;;5.75;100.00;95196.34;647723;212;31857;-77
2021/12/03 09:28:12;;;;;;;1.63;1.53;;;5.50;1.40;;;7.58;100.00;95186.09;618169;222;32120;-75
2021/12/03 09:30:56;;;;;;;1.93;1.50;;;7.30;1.40;;;6.33;100.00;95196.31;646036;212;31595;-78
2021/12/03 09:36:01;;;;;;;1.77;1.45;;;3.70;1.40;;;4.75;100.00;95196.70;646378;212;31553;-78
2021/12/03 09:38:41;;;;;;;1.87;1.42;;;5.00;1.40;;;5.03;100.00;95199.76;619856;226;42795;-77
2021/12/03 09:41:23;;;;;;;1.55;1.45;;;4.00;1.40;;;5.97;100.00;95198.25;647433;212;31710;-76
2021/12/03 09:44:10;;;;;;;1.90;1.33;;;5.50;1.40;;;6.62;99.44;95200.73;647281;216;31554;-76
2021/12/03 09:46:58;;;;;;;2.40;1.80;;;5.40;1.40;;;7.06;97.94;95199.26;646071;212;31582;-79
2021/12/03 09:49:48;;;;;;;2.10;1.70;;;6.10;1.40;;;7.22;90.95;95200.44;647553;212;31537;-76
2021/12/03 09:52:35;;;;;;;1.97;1.80;;;6.70;1.40;;;7.77;88.67;95193.92;641018;217;34123;-76
2021/12/03 09:55:14;;;;;;;3.20;1.58;;;6.90;1.40;;;7.11;86.31;95191.63;647409;216;42541;-78
2021/12/03 10:00:55;;;;;;;1.60;1.50;;;6.90;1.40;;;8.25;84.24;95181.51;646147;212;31557;-75
2021/12/03 10:03:43;;;;;;;1.95;1.50;;;6.90;1.40;;;8.60;87.97;95180.80;647133;212;32538;-75
2021/12/03 10:12:37;;;;;;;1.75;1.52;;;5.30;1.40;;;8.16;83.52;95169.81;647383;216;31590;-76
2021/12/03 10:15:15;;;;;;;2.03;1.30;;;6.30;1.40;;;8.09;82.50;95165.55;647442;216;37077;-74
2021/12/03 10:18:19;;;;;;;1.90;1.50;;;6.20;1.40;;;8.08;80.28;95163.91;646912;216;31703;-75
2021/12/03 10:21:05;;;;;;;2.70;1.50;;;6.00;1.40;;;7.96;82.76;95158.61;619089;226;42565;-75
2021/12/03 10:26:54;;;;;;;1.70;1.20;;;6.00;1.40;;;7.73;83.13;95156.70;647282;216;31701;-78
2021/12/03 10:29:31;;;;;;;0.90;0.70;;;6.20;1.40;;;7.53;80.78;95156.65;620443;226;36249;-78
2021/12/03 10:32:37;;;;;;;1.50;1.27;;;6.20;1.40;;;7.10;79.78;95151.80;620554;222;31888;-78
2021/12/03 10:42:00;;;;;;;1.00;0.90;;;6.40;1.40;;;8.07;69.70;95142.86;631959;222;31657;-78
2021/12/03 10:44:50;;;;;;;0.80;0.60;;;6.50;1.40;;;7.76;69.50;95141.64;647995;212;31554;-78
2021/12/03 10:50:28;;;;;;;1.60;0.70;;;6.30;1.40;;;8.75;66.54;95130.56;646495;212;31485;-76
2021/12/03 10:53:28;;;;;;;1.05;0.95;;;6.50;1.40;;;8.42;61.40;95132.48;616127;224;31762;-78
2021/12/03 10:59:10;;;;;;;0.73;0.65;;;7.30;1.40;;;8.11;63.63;95129.89;647962;216;31492;-77
2021/12/03 11:07:43;;;;;;;1.30;1.00;;;6.50;1.40;;;7.65;69.57;95126.44;646380;212;31674;-77
2021/12/03 11:13:28;;;;;;;1.00;0.70;;;5.50;1.40;;;8.40;66.96;95119.34;645483;213;31528;-78
2021/12/03 11:16:48;;;;;;;1.00;0.70;;;6.30;1.40;;;9.00;65.28;95122.72;647835;212;33467;-76
2021/12/03 11:19:38;;;;;;;1.60;0.77;;;6.60;1.40;;;7.16;68.94;95121.22;646799;212;42151;-78
2021/12/03 11:28:26;;;;;;;1.30;1.00;;;2.10;1.40;;;4.24;87.93;95128.44;647316;212;32240;-78
2021/12/03 11:30:55;;;;;;;1.73;1.00;;;3.20;1.40;;;3.64;91.93;95124.48;620414;222;32077;-78
2021/12/03 11:39:03;;;;;;;1.37;1.23;;;1.70;1.40;;;2.96;100.00;95124.91;620729;222;32037;-78
2021/12/03 11:45:02;;;;;;;1.25;1.15;;;1.80;1.40;;;2.53;100.00;95123.61;646990;216;31539;-77
2021/12/03 11:54:10;;;;;;;1.12;1.00;;;1.90;1.40;;;2.45;100.00;95123.27;616236;226;31852;-78
2021/12/03 12:14:39;;;;;;;1.30;1.20;;;0.80;1.40;;;1.78;100.00;95109.81;641922;215;42178;-76
2021/12/03 12:16:53;;;;;;;0.90;0.80;;;0.70;1.40;;;1.42;100.00;95111.06;621311;222;31868;-77
2021/12/03 12:19:13;;;;;;;1.10;0.80;;;0.50;1.40;;;1.38;100.00;95113.54;618874;226;32110;-77
2021/12/03 13:13:33;;;;;;;1.62;1.33;;;5.30;1.40;;;6.14;84.76;95080.38;640245;215;31555;-77
2021/12/03 13:25:32;;;;;;;1.00;1.00;;;5.80;1.40;;;6.06;87.25;95079.89;626159;226;23525;-76
2021/12/03 13:28:36;;;;;;;1.08;0.98;;;5.20;1.40;;;6.28;84.92;95076.87;619548;222;31824;-78
2021/12/03 13:39:45;;;;;;;1.65;1.37;;;3.10;1.40;;;4.54;100.00;95091.63;620092;226;42503;-77
2021/12/03 13:59:25;;;;;;;1.73;1.10;;;2.40;1.40;;;2.46;100.00;95084.42;647376;216;31511;-78
2021/12/03 14:01:54;;;;;;;1.10;1.00;;;1.90;1.40;;;2.57;100.00;95075.14;647490;216;31556;-77
2021/12/03 14:05:02;;;;;;;1.30;1.20;;;1.80;1.40;;;2.39;100.00;95070.56;644933;212;31573;-77
2021/12/03 14:20:10;;;;;;;1.20;1.10;;;1.20;1.40;;;1.77;100.00;95077.58;647358;212;32226;-77
2021/12/03 14:29:36;;;;;;;1.60;1.00;;;1.00;1.40;;;1.42;100.00;95079.70;646450;212;31521;-77
2021/12/03 14:39:27;;;;;;;0.65;0.50;;;0.40;1.40;;;0.97;100.00;95066.27;645967;216;31539;-76
2021/12/03 14:45:02;;;;;;;0.68;0.45;;;0.30;1.40;;;0.76;100.00;95072.03;647790;212;31621;-76
2021/12/03 14:47:53;;;;;;;1.02;0.95;;;0.30;1.40;;;0.73;100.00;95073.68;647420;216;31508;-76
2021/12/03 14:53:20;;;;;;;1.42;0.90;;;0.30;1.40;;;0.58;100.00;95083.77;646526;212;31735;-77
2021/12/03 14:56:03;;;;;;;1.10;1.00;;;0.10;1.40;;;0.55;100.00;95084.52;646925;216;31689;-76
2021/12/03 14:58:52;;;;;;;0.70;0.70;;;-0.10;1.40;;;0.49;100.00;95078.52;648743;212;31553;-77
2021/12/03 15:01:43;;;;;;;0.70;0.60;;;-0.10;1.40;;;0.42;100.00;95081.92;619565;226;44530;-77